Cut Bank, MT

1:53 PM MDT on August 22, 2014 (GMT -0600)
Cut Bank Municipal | Change Station
CLOSE
Current Station
Airport
Location: Cut Bank,
Elevation: 3855 ft
Nearby Weather Stations

Elev 3855 ft 48.61 °N, 112.38 °W | Updated 22 minutes ago

Overcast
Overcast
53 °F
Feels Like 53 °F
N
16
Wind Variable Wind from NNE

Today
High -- | Low -- °F
--% Chance of Precip.
Yesterday
High -- | Low -- °F
Precip. -- in
6:32 AM 8:30 PM
Waning Crescent, 7% visible
Pressure 30.18 in
Visibility 10.0 miles
Clouds Overcast 1000 ft
Dew Point 48 °F
Humidity 83%
Rainfall 0.01 in
Snow Depth Not available.
UV 3 out of 12
Pollen 3.70 out of 12
Air Quality Not available.
Flu Activity Not available.
SPECI KCTB 221931Z AUTO 03014KT 10SM OVC010 12/09 A3018 RMK AO2 RAB07E15 CIG 008V012 P0000 T01170089

More Conditions Fewer Conditions

Pressure 30.18 in
Visibility 10.0 miles
Clouds Overcast 1000 ft
Dew Point 48 °F
Humidity 83%
Rainfall 0.01 in
Snow Depth Not available.
UV 3 out of 12
Pollen 3.70 out of 12
Air Quality Not available.
Flu Activity Not available.
SPECI KCTB 221931Z AUTO 03014KT 10SM OVC010 12/09 A3018 RMK AO2 RAB07E15 CIG 008V012 P0000 T01170089

More Conditions Fewer Conditions

10-Day Weather Forecast

Almanac

Astronomy

Aug. 22, 2014 Rise Set
Actual Time 6:32 AM MDT 8:30 PM MDT
Civil Twilight 5:58 AM MDT 9:04 PM MDT
Nautical Twilight 5:16 AM MDT 9:45 PM MDT
Astronomical Twilight 4:30 AM MDT 10:32 PM MDT
Moon 3:52 AM MDT 6:45 PM MDT
Length of Visible Light 15h 05m
Length of Day
13h 58m
Tomorrow will be 3m 20s shorter.
Waning Crescent, 7% of the Moon is Illuminated
Today
Waning Crescent
Aug 25
New
Sep 2
First Quarter
Sep 8
Full
Sep 15
Last Quarter

Today's Extremes

State Highs State Lows

Community

WunderPhotos

Upload Photos

1,746,227 photos uploaded!

Nearby

Snow Depth

Station Depth Elevation
Dupuyer Creek 0 in 5750 ft
Badger Pass 1 in 6900 ft
Waldron 2 in 5600 ft
Mount Lockhart 0 in 6400 ft
Many Glacier 0 in 4900 ft

Earthquake Activity

City Distance Mag. Time & Date
No recent earthquake activity has been reported nearby.
Minimum magnitude displayed is 2.5.

Coastal Water Temperatures

Place Temperature
No Stations Reporting

Nearby Weather Stations